sensor_id;sensor_type;location;lat;lon;timestamp;P1;durP1;ratioP1;P2;durP2;ratioP2
23702;SDS011;12030;50.376;8.762;2022-10-28T00:00:21;11.27;;;8.30;;
23702;SDS011;12030;50.376;8.762;2022-10-28T00:02:47;9.23;;;7.63;;
23702;SDS011;12030;50.376;8.762;2022-10-28T00:07:47;11.97;;;8.37;;
23702;SDS011;12030;50.376;8.762;2022-10-28T00:10:12;15.97;;;8.13;;
23702;SDS011;12030;50.376;8.762;2022-10-28T00:12:38;10.70;;;7.70;;
23702;SDS011;12030;50.376;8.762;2022-10-28T00:15:03;13.20;;;9.10;;
23702;SDS011;12030;50.376;8.762;2022-10-28T00:17:29;12.70;;;8.73;;
23702;SDS011;12030;50.376;8.762;2022-10-28T00:19:55;12.73;;;8.57;;
23702;SDS011;12030;50.376;8.762;2022-10-28T00:22:21;14.00;;;10.17;;
23702;SDS011;12030;50.376;8.762;2022-10-28T00:24:46;14.33;;;10.33;;
23702;SDS011;12030;50.376;8.762;2022-10-28T00:27:12;13.03;;;10.50;;
23702;SDS011;12030;50.376;8.762;2022-10-28T00:29:37;12.17;;;9.47;;
23702;SDS011;12030;50.376;8.762;2022-10-28T00:32:03;17.57;;;9.70;;
23702;SDS011;12030;50.376;8.762;2022-10-28T00:34:29;16.07;;;9.57;;
23702;SDS011;12030;50.376;8.762;2022-10-28T00:36:54;13.90;;;9.07;;
23702;SDS011;12030;50.376;8.762;2022-10-28T00:39:21;14.00;;;8.73;;
23702;SDS011;12030;50.376;8.762;2022-10-28T00:41:50;17.47;;;9.23;;
23702;SDS011;12030;50.376;8.762;2022-10-28T00:52:50;16.47;;;9.63;;
23702;SDS011;12030;50.376;8.762;2022-10-28T00:55:22;13.83;;;9.83;;
23702;SDS011;12030;50.376;8.762;2022-10-28T00:57:48;13.47;;;9.70;;
23702;SDS011;12030;50.376;8.762;2022-10-28T01:00:14;18.83;;;9.70;;
23702;SDS011;12030;50.376;8.762;2022-10-28T01:02:46;17.87;;;13.33;;
23702;SDS011;12030;50.376;8.762;2022-10-28T01:05:13;16.93;;;13.63;;
23702;SDS011;12030;50.376;8.762;2022-10-28T01:07:41;19.27;;;13.37;;
23702;SDS011;12030;50.376;8.762;2022-10-28T01:10:07;17.33;;;11.60;;
23702;SDS011;12030;50.376;8.762;2022-10-28T01:18:24;24.80;;;9.70;;
23702;SDS011;12030;50.376;8.762;2022-10-28T01:29:52;12.47;;;8.83;;
23702;SDS011;12030;50.376;8.762;2022-10-28T01:32:37;11.23;;;8.60;;
23702;SDS011;12030;50.376;8.762;2022-10-28T01:37:54;13.03;;;9.50;;
23702;SDS011;12030;50.376;8.762;2022-10-28T01:45:50;18.80;;;10.90;;
23702;SDS011;12030;50.376;8.762;2022-10-28T01:48:31;15.73;;;9.93;;
23702;SDS011;12030;50.376;8.762;2022-10-28T01:51:06;13.13;;;10.13;;
23702;SDS011;12030;50.376;8.762;2022-10-28T01:53:37;23.83;;;11.13;;
23702;SDS011;12030;50.376;8.762;2022-10-28T01:56:10;12.33;;;9.33;;
23702;SDS011;12030;50.376;8.762;2022-10-28T01:58:39;18.20;;;9.37;;
23702;SDS011;12030;50.376;8.762;2022-10-28T02:01:07;13.27;;;9.63;;
23702;SDS011;12030;50.376;8.762;2022-10-28T02:03:34;17.70;;;10.10;;
23702;SDS011;12030;50.376;8.762;2022-10-28T02:06:00;14.27;;;9.27;;
23702;SDS011;12030;50.376;8.762;2022-10-28T02:13:57;17.10;;;9.97;;
23702;SDS011;12030;50.376;8.762;2022-10-28T02:22:17;17.37;;;11.73;;
23702;SDS011;12030;50.376;8.762;2022-10-28T02:25:04;31.23;;;12.73;;
23702;SDS011;12030;50.376;8.762;2022-10-28T02:30:42;16.67;;;10.83;;
23702;SDS011;12030;50.376;8.762;2022-10-28T02:33:10;19.70;;;10.83;;
23702;SDS011;12030;50.376;8.762;2022-10-28T02:38:31;14.13;;;10.97;;
23702;SDS011;12030;50.376;8.762;2022-10-28T02:41:08;14.40;;;11.30;;
23702;SDS011;12030;50.376;8.762;2022-10-28T02:43:41;21.80;;;11.23;;
23702;SDS011;12030;50.376;8.762;2022-10-28T02:46:10;17.20;;;11.07;;
23702;SDS011;12030;50.376;8.762;2022-10-28T02:48:39;14.27;;;10.67;;
23702;SDS011;12030;50.376;8.762;2022-10-28T02:51:09;19.20;;;9.67;;
23702;SDS011;12030;50.376;8.762;2022-10-28T02:53:58;19.90;;;10.70;;
23702;SDS011;12030;50.376;8.762;2022-10-28T02:56:31;19.17;;;11.17;;
23702;SDS011;12030;50.376;8.762;2022-10-28T02:59:11;14.47;;;10.97;;
23702;SDS011;12030;50.376;8.762;2022-10-28T03:01:37;18.80;;;10.83;;
23702;SDS011;12030;50.376;8.762;2022-10-28T03:04:03;15.33;;;9.97;;
23702;SDS011;12030;50.376;8.762;2022-10-28T03:06:29;13.67;;;8.60;;
23702;SDS011;12030;50.376;8.762;2022-10-28T03:08:55;12.07;;;8.87;;
23702;SDS011;12030;50.376;8.762;2022-10-28T03:11:21;13.70;;;9.37;;
23702;SDS011;12030;50.376;8.762;2022-10-28T03:13:46;12.90;;;8.90;;
23702;SDS011;12030;50.376;8.762;2022-10-28T03:16:12;15.73;;;9.50;;
23702;SDS011;12030;50.376;8.762;2022-10-28T03:18:37;13.43;;;8.97;;
23702;SDS011;12030;50.376;8.762;2022-10-28T03:21:03;13.50;;;9.73;;
23702;SDS011;12030;50.376;8.762;2022-10-28T03:23:29;12.53;;;9.17;;
23702;SDS011;12030;50.376;8.762;2022-10-28T03:25:54;14.00;;;8.93;;
23702;SDS011;12030;50.376;8.762;2022-10-28T03:28:20;14.60;;;8.83;;
23702;SDS011;12030;50.376;8.762;2022-10-28T03:30:45;15.53;;;8.63;;
23702;SDS011;12030;50.376;8.762;2022-10-28T03:33:11;13.57;;;9.37;;
23702;SDS011;12030;50.376;8.762;2022-10-28T03:35:36;15.10;;;9.80;;
23702;SDS011;12030;50.376;8.762;2022-10-28T03:38:02;14.30;;;10.03;;
23702;SDS011;12030;50.376;8.762;2022-10-28T03:40:27;14.03;;;8.77;;
23702;SDS011;12030;50.376;8.762;2022-10-28T03:42:53;11.50;;;8.50;;
23702;SDS011;12030;50.376;8.762;2022-10-28T03:45:19;13.43;;;9.57;;
23702;SDS011;12030;50.376;8.762;2022-10-28T03:47:44;13.17;;;9.17;;
23702;SDS011;12030;50.376;8.762;2022-10-28T03:50:10;12.20;;;9.27;;
23702;SDS011;12030;50.376;8.762;2022-10-28T03:52:35;14.13;;;8.83;;
23702;SDS011;12030;50.376;8.762;2022-10-28T03:55:01;10.30;;;8.53;;
23702;SDS011;12030;50.376;8.762;2022-10-28T03:57:29;24.33;;;9.07;;
23702;SDS011;12030;50.376;8.762;2022-10-28T03:59:55;15.87;;;8.13;;
23702;SDS011;12030;50.376;8.762;2022-10-28T04:02:21;12.13;;;7.83;;
23702;SDS011;12030;50.376;8.762;2022-10-28T04:04:46;15.00;;;9.00;;
23702;SDS011;12030;50.376;8.762;2022-10-28T04:07:12;15.47;;;8.17;;
23702;SDS011;12030;50.376;8.762;2022-10-28T04:09:37;14.80;;;7.97;;
23702;SDS011;12030;50.376;8.762;2022-10-28T04:12:03;10.50;;;8.67;;
23702;SDS011;12030;50.376;8.762;2022-10-28T04:14:30;18.83;;;8.97;;
23702;SDS011;12030;50.376;8.762;2022-10-28T04:16:55;14.30;;;9.50;;
23702;SDS011;12030;50.376;8.762;2022-10-28T04:19:21;13.27;;;8.40;;
23702;SDS011;12030;50.376;8.762;2022-10-28T04:21:46;12.17;;;8.53;;
23702;SDS011;12030;50.376;8.762;2022-10-28T04:24:12;14.47;;;8.57;;
23702;SDS011;12030;50.376;8.762;2022-10-28T04:26:37;17.30;;;8.70;;
23702;SDS011;12030;50.376;8.762;2022-10-28T04:29:03;13.83;;;7.67;;
23702;SDS011;12030;50.376;8.762;2022-10-28T04:31:29;10.03;;;7.60;;
23702;SDS011;12030;50.376;8.762;2022-10-28T04:33:54;14.87;;;8.13;;
23702;SDS011;12030;50.376;8.762;2022-10-28T04:36:20;12.97;;;7.83;;
23702;SDS011;12030;50.376;8.762;2022-10-28T04:38:45;12.00;;;8.20;;
23702;SDS011;12030;50.376;8.762;2022-10-28T04:41:11;11.40;;;7.73;;
23702;SDS011;12030;50.376;8.762;2022-10-28T04:43:38;11.43;;;7.97;;
23702;SDS011;12030;50.376;8.762;2022-10-28T04:46:04;11.50;;;8.17;;
23702;SDS011;12030;50.376;8.762;2022-10-28T04:48:30;11.63;;;8.17;;
23702;SDS011;12030;50.376;8.762;2022-10-28T04:50:57;13.47;;;8.13;;
23702;SDS011;12030;50.376;8.762;2022-10-28T04:53:22;12.23;;;7.87;;
23702;SDS011;12030;50.376;8.762;2022-10-28T04:55:48;9.00;;;7.87;;
23702;SDS011;12030;50.376;8.762;2022-10-28T04:58:13;13.63;;;7.23;;
23702;SDS011;12030;50.376;8.762;2022-10-28T05:00:39;14.20;;;7.27;;
23702;SDS011;12030;50.376;8.762;2022-10-28T05:03:04;14.40;;;7.37;;
23702;SDS011;12030;50.376;8.762;2022-10-28T05:05:30;10.77;;;7.10;;
23702;SDS011;12030;50.376;8.762;2022-10-28T05:07:56;11.07;;;7.43;;
23702;SDS011;12030;50.376;8.762;2022-10-28T05:10:22;12.17;;;7.53;;
23702;SDS011;12030;50.376;8.762;2022-10-28T05:12:48;15.20;;;8.17;;
23702;SDS011;12030;50.376;8.762;2022-10-28T05:15:13;14.23;;;8.00;;
23702;SDS011;12030;50.376;8.762;2022-10-28T05:17:40;12.43;;;9.20;;
23702;SDS011;12030;50.376;8.762;2022-10-28T05:20:09;17.20;;;9.30;;
23702;SDS011;12030;50.376;8.762;2022-10-28T05:22:36;21.77;;;10.47;;
23702;SDS011;12030;50.376;8.762;2022-10-28T05:25:02;17.60;;;10.83;;
23702;SDS011;12030;50.376;8.762;2022-10-28T05:27:28;20.80;;;11.20;;
23702;SDS011;12030;50.376;8.762;2022-10-28T05:29:54;20.90;;;11.13;;
23702;SDS011;12030;50.376;8.762;2022-10-28T05:32:19;15.07;;;10.83;;
23702;SDS011;12030;50.376;8.762;2022-10-28T05:34:45;17.60;;;10.10;;
23702;SDS011;12030;50.376;8.762;2022-10-28T05:37:10;19.50;;;10.23;;
23702;SDS011;12030;50.376;8.762;2022-10-28T05:39:36;20.73;;;10.17;;
23702;SDS011;12030;50.376;8.762;2022-10-28T05:42:01;16.33;;;10.60;;
23702;SDS011;12030;50.376;8.762;2022-10-28T05:44:27;18.87;;;10.23;;
23702;SDS011;12030;50.376;8.762;2022-10-28T05:46:52;20.10;;;10.47;;
23702;SDS011;12030;50.376;8.762;2022-10-28T05:49:19;18.00;;;10.13;;
23702;SDS011;12030;50.376;8.762;2022-10-28T05:51:45;25.13;;;11.20;;
23702;SDS011;12030;50.376;8.762;2022-10-28T05:54:10;20.53;;;10.40;;
23702;SDS011;12030;50.376;8.762;2022-10-28T05:56:36;20.30;;;11.47;;
23702;SDS011;12030;50.376;8.762;2022-10-28T05:59:02;15.67;;;10.90;;
23702;SDS011;12030;50.376;8.762;2022-10-28T06:01:28;18.77;;;11.77;;
23702;SDS011;12030;50.376;8.762;2022-10-28T06:03:53;22.27;;;12.03;;
23702;SDS011;12030;50.376;8.762;2022-10-28T06:06:19;15.67;;;11.43;;
23702;SDS011;12030;50.376;8.762;2022-10-28T06:08:44;17.60;;;11.30;;
23702;SDS011;12030;50.376;8.762;2022-10-28T06:11:10;21.07;;;12.07;;
23702;SDS011;12030;50.376;8.762;2022-10-28T06:13:35;18.83;;;11.97;;
23702;SDS011;12030;50.376;8.762;2022-10-28T06:16:01;17.70;;;11.00;;
23702;SDS011;12030;50.376;8.762;2022-10-28T06:18:26;20.30;;;11.77;;
23702;SDS011;12030;50.376;8.762;2022-10-28T06:20:55;18.57;;;10.90;;
23702;SDS011;12030;50.376;8.762;2022-10-28T06:23:22;18.43;;;11.03;;
23702;SDS011;12030;50.376;8.762;2022-10-28T06:25:48;14.43;;;9.77;;
23702;SDS011;12030;50.376;8.762;2022-10-28T06:28:14;15.63;;;10.43;;
23702;SDS011;12030;50.376;8.762;2022-10-28T06:30:40;12.50;;;10.30;;
23702;SDS011;12030;50.376;8.762;2022-10-28T06:33:06;15.43;;;10.33;;
23702;SDS011;12030;50.376;8.762;2022-10-28T06:35:31;16.90;;;9.87;;
23702;SDS011;12030;50.376;8.762;2022-10-28T06:37:57;17.90;;;9.93;;
23702;SDS011;12030;50.376;8.762;2022-10-28T06:40:23;17.87;;;10.17;;
23702;SDS011;12030;50.376;8.762;2022-10-28T06:42:55;18.07;;;9.40;;
23702;SDS011;12030;50.376;8.762;2022-10-28T06:45:31;14.30;;;8.33;;
23702;SDS011;12030;50.376;8.762;2022-10-28T06:48:01;17.80;;;8.70;;
23702;SDS011;12030;50.376;8.762;2022-10-28T06:50:29;16.87;;;8.50;;
23702;SDS011;12030;50.376;8.762;2022-10-28T06:52:55;14.37;;;9.13;;
23702;SDS011;12030;50.376;8.762;2022-10-28T06:55:22;16.87;;;7.97;;
23702;SDS011;12030;50.376;8.762;2022-10-28T06:57:50;10.63;;;8.17;;
23702;SDS011;12030;50.376;8.762;2022-10-28T07:00:16;13.60;;;7.97;;
23702;SDS011;12030;50.376;8.762;2022-10-28T07:02:42;12.40;;;8.30;;
23702;SDS011;12030;50.376;8.762;2022-10-28T07:05:08;13.63;;;7.57;;
23702;SDS011;12030;50.376;8.762;2022-10-28T07:07:34;14.33;;;7.27;;
23702;SDS011;12030;50.376;8.762;2022-10-28T07:10:04;13.43;;;7.27;;
23702;SDS011;12030;50.376;8.762;2022-10-28T07:12:30;12.63;;;7.53;;
23702;SDS011;12030;50.376;8.762;2022-10-28T07:14:56;18.00;;;8.00;;
23702;SDS011;12030;50.376;8.762;2022-10-28T07:17:21;14.13;;;6.90;;
23702;SDS011;12030;50.376;8.762;2022-10-28T07:19:47;11.43;;;7.43;;
23702;SDS011;12030;50.376;8.762;2022-10-28T07:22:12;11.70;;;6.83;;
23702;SDS011;12030;50.376;8.762;2022-10-28T07:24:38;11.57;;;7.70;;
23702;SDS011;12030;50.376;8.762;2022-10-28T07:27:03;12.90;;;6.97;;
23702;SDS011;12030;50.376;8.762;2022-10-28T07:29:29;12.90;;;7.17;;
23702;SDS011;12030;50.376;8.762;2022-10-28T07:31:55;13.20;;;7.27;;
23702;SDS011;12030;50.376;8.762;2022-10-28T07:34:20;11.07;;;6.20;;
23702;SDS011;12030;50.376;8.762;2022-10-28T07:36:49;11.03;;;6.10;;
23702;SDS011;12030;50.376;8.762;2022-10-28T07:39:16;10.10;;;6.07;;
23702;SDS011;12030;50.376;8.762;2022-10-28T07:41:42;11.10;;;6.07;;
23702;SDS011;12030;50.376;8.762;2022-10-28T07:44:08;11.30;;;6.63;;
23702;SDS011;12030;50.376;8.762;2022-10-28T07:46:34;14.70;;;5.93;;
23702;SDS011;12030;50.376;8.762;2022-10-28T07:48:59;10.23;;;5.70;;
23702;SDS011;12030;50.376;8.762;2022-10-28T07:51:25;8.87;;;5.17;;
23702;SDS011;12030;50.376;8.762;2022-10-28T07:53:51;10.47;;;5.67;;
23702;SDS011;12030;50.376;8.762;2022-10-28T07:56:16;9.70;;;5.43;;
23702;SDS011;12030;50.376;8.762;2022-10-28T07:58:42;9.93;;;5.43;;
23702;SDS011;12030;50.376;8.762;2022-10-28T08:01:09;16.63;;;6.03;;
23702;SDS011;12030;50.376;8.762;2022-10-28T08:03:36;13.97;;;5.30;;
23702;SDS011;12030;50.376;8.762;2022-10-28T08:06:09;16.30;;;5.60;;
23702;SDS011;12030;50.376;8.762;2022-10-28T08:08:36;11.77;;;5.70;;
23702;SDS011;12030;50.376;8.762;2022-10-28T08:11:09;14.33;;;5.93;;
23702;SDS011;12030;50.376;8.762;2022-10-28T08:13:36;11.37;;;5.70;;
23702;SDS011;12030;50.376;8.762;2022-10-28T08:16:01;11.67;;;5.50;;
23702;SDS011;12030;50.376;8.762;2022-10-28T08:18:27;11.00;;;5.37;;
23702;SDS011;12030;50.376;8.762;2022-10-28T08:20:52;16.53;;;5.83;;
23702;SDS011;12030;50.376;8.762;2022-10-28T08:23:18;12.33;;;5.63;;
23702;SDS011;12030;50.376;8.762;2022-10-28T08:25:50;11.73;;;5.30;;
23702;SDS011;12030;50.376;8.762;2022-10-28T08:28:16;10.23;;;5.30;;
23702;SDS011;12030;50.376;8.762;2022-10-28T08:30:42;14.00;;;5.23;;
23702;SDS011;12030;50.376;8.762;2022-10-28T08:33:08;13.10;;;5.00;;
23702;SDS011;12030;50.376;8.762;2022-10-28T08:35:34;14.07;;;5.00;;
23702;SDS011;12030;50.376;8.762;2022-10-28T08:38:00;10.90;;;5.00;;
23702;SDS011;12030;50.376;8.762;2022-10-28T08:41:11;10.63;;;5.07;;
23702;SDS011;12030;50.376;8.762;2022-10-28T08:43:26;11.70;;;5.03;;
23702;SDS011;12030;50.376;8.762;2022-10-28T08:46:09;14.23;;;6.13;;
23702;SDS011;12030;50.376;8.762;2022-10-28T08:48:54;8.33;;;5.30;;
23702;SDS011;12030;50.376;8.762;2022-10-28T08:51:33;11.87;;;5.33;;
23702;SDS011;12030;50.376;8.762;2022-10-28T08:54:05;12.03;;;5.03;;
23702;SDS011;12030;50.376;8.762;2022-10-28T08:56:43;12.67;;;5.10;;
23702;SDS011;12030;50.376;8.762;2022-10-28T08:59:22;14.30;;;5.03;;
23702;SDS011;12030;50.376;8.762;2022-10-28T09:01:55;9.97;;;4.80;;
23702;SDS011;12030;50.376;8.762;2022-10-28T09:04:34;11.20;;;4.50;;
23702;SDS011;12030;50.376;8.762;2022-10-28T09:07:04;12.00;;;4.50;;
23702;SDS011;12030;50.376;8.762;2022-10-28T09:09:33;18.03;;;5.60;;
23702;SDS011;12030;50.376;8.762;2022-10-28T09:15:10;11.17;;;4.80;;
23702;SDS011;12030;50.376;8.762;2022-10-28T09:17:57;16.67;;;5.13;;
23702;SDS011;12030;50.376;8.762;2022-10-28T09:20:56;12.77;;;4.93;;
23702;SDS011;12030;50.376;8.762;2022-10-28T09:23:27;13.63;;;4.93;;
23702;SDS011;12030;50.376;8.762;2022-10-28T09:26:03;12.07;;;4.67;;
23702;SDS011;12030;50.376;8.762;2022-10-28T09:28:41;9.03;;;4.37;;
23702;SDS011;12030;50.376;8.762;2022-10-28T09:36:52;10.03;;;5.33;;
23702;SDS011;12030;50.376;8.762;2022-10-28T09:39:30;13.67;;;4.67;;
23702;SDS011;12030;50.376;8.762;2022-10-28T09:42:05;13.53;;;5.10;;
23702;SDS011;12030;50.376;8.762;2022-10-28T09:44:42;9.40;;;4.63;;
23702;SDS011;12030;50.376;8.762;2022-10-28T09:47:16;13.83;;;4.97;;
23702;SDS011;12030;50.376;8.762;2022-10-28T09:49:45;11.53;;;4.70;;
23702;SDS011;12030;50.376;8.762;2022-10-28T09:52:17;9.97;;;5.07;;
23702;SDS011;12030;50.376;8.762;2022-10-28T09:54:54;10.67;;;4.70;;
23702;SDS011;12030;50.376;8.762;2022-10-28T09:57:24;11.67;;;5.00;;
23702;SDS011;12030;50.376;8.762;2022-10-28T09:59:54;14.67;;;5.10;;
23702;SDS011;12030;50.376;8.762;2022-10-28T10:02:27;11.53;;;5.03;;
23702;SDS011;12030;50.376;8.762;2022-10-28T10:04:55;13.33;;;5.00;;
23702;SDS011;12030;50.376;8.762;2022-10-28T10:07:28;13.27;;;5.17;;
23702;SDS011;12030;50.376;8.762;2022-10-28T10:10:00;13.83;;;5.23;;
23702;SDS011;12030;50.376;8.762;2022-10-28T10:12:36;12.27;;;5.17;;
23702;SDS011;12030;50.376;8.762;2022-10-28T10:15:03;9.20;;;4.23;;
23702;SDS011;12030;50.376;8.762;2022-10-28T10:17:32;10.60;;;5.03;;
23702;SDS011;12030;50.376;8.762;2022-10-28T10:22:40;9.40;;;4.87;;
23702;SDS011;12030;50.376;8.762;2022-10-28T10:27:55;12.67;;;5.50;;
23702;SDS011;12030;50.376;8.762;2022-10-28T10:30:23;13.07;;;6.00;;
23702;SDS011;12030;50.376;8.762;2022-10-28T10:32:52;10.57;;;5.33;;
23702;SDS011;12030;50.376;8.762;2022-10-28T10:35:28;15.30;;;5.67;;
23702;SDS011;12030;50.376;8.762;2022-10-28T10:37:56;12.00;;;5.70;;
23702;SDS011;12030;50.376;8.762;2022-10-28T10:40:31;11.77;;;5.73;;
23702;SDS011;12030;50.376;8.762;2022-10-28T10:45:58;11.30;;;5.57;;
23702;SDS011;12030;50.376;8.762;2022-10-28T10:48:25;13.47;;;4.87;;
23702;SDS011;12030;50.376;8.762;2022-10-28T10:50:52;10.03;;;4.53;;
23702;SDS011;12030;50.376;8.762;2022-10-28T10:53:22;10.13;;;5.47;;
23702;SDS011;12030;50.376;8.762;2022-10-28T10:56:06;16.43;;;5.50;;
23702;SDS011;12030;50.376;8.762;2022-10-28T10:58:36;9.67;;;5.27;;
23702;SDS011;12030;50.376;8.762;2022-10-28T11:01:04;13.17;;;5.80;;
23702;SDS011;12030;50.376;8.762;2022-10-28T11:04:05;9.13;;;5.23;;
23702;SDS011;12030;50.376;8.762;2022-10-28T11:06:26;10.73;;;4.93;;
23702;SDS011;12030;50.376;8.762;2022-10-28T11:09:00;14.37;;;5.10;;
23702;SDS011;12030;50.376;8.762;2022-10-28T11:11:33;12.97;;;5.23;;
23702;SDS011;12030;50.376;8.762;2022-10-28T11:14:01;13.70;;;5.70;;
23702;SDS011;12030;50.376;8.762;2022-10-28T11:16:29;7.03;;;4.40;;
23702;SDS011;12030;50.376;8.762;2022-10-28T11:18:54;7.63;;;4.50;;
23702;SDS011;12030;50.376;8.762;2022-10-28T11:21:26;10.73;;;4.70;;
23702;SDS011;12030;50.376;8.762;2022-10-28T11:26:33;7.93;;;4.27;;
23702;SDS011;12030;50.376;8.762;2022-10-28T11:29:12;9.83;;;4.90;;
23702;SDS011;12030;50.376;8.762;2022-10-28T11:34:36;13.90;;;4.57;;
23702;SDS011;12030;50.376;8.762;2022-10-28T11:45:30;11.17;;;3.97;;
23702;SDS011;12030;50.376;8.762;2022-10-28T11:49:23;10.83;;;3.87;;
23702;SDS011;12030;50.376;8.762;2022-10-28T11:51:52;11.10;;;4.03;;
23702;SDS011;12030;50.376;8.762;2022-10-28T11:57:17;9.93;;;3.80;;
23702;SDS011;12030;50.376;8.762;2022-10-28T12:00:11;9.70;;;3.43;;
23702;SDS011;12030;50.376;8.762;2022-10-28T12:13:31;12.63;;;3.97;;
23702;SDS011;12030;50.376;8.762;2022-10-28T12:16:12;13.20;;;4.07;;
23702;SDS011;12030;50.376;8.762;2022-10-28T12:18:59;10.23;;;3.80;;
23702;SDS011;12030;50.376;8.762;2022-10-28T12:21:35;11.43;;;3.37;;
23702;SDS011;12030;50.376;8.762;2022-10-28T12:24:05;12.27;;;3.80;;
23702;SDS011;12030;50.376;8.762;2022-10-28T12:26:45;9.73;;;3.33;;
23702;SDS011;12030;50.376;8.762;2022-10-28T12:29:16;19.80;;;6.73;;
23702;SDS011;12030;50.376;8.762;2022-10-28T12:32:06;11.30;;;4.13;;
23702;SDS011;12030;50.376;8.762;2022-10-28T12:34:59;25.27;;;8.40;;
23702;SDS011;12030;50.376;8.762;2022-10-28T12:37:31;9.43;;;3.53;;
23702;SDS011;12030;50.376;8.762;2022-10-28T12:40:06;14.73;;;3.33;;
23702;SDS011;12030;50.376;8.762;2022-10-28T12:42:43;9.30;;;2.97;;
23702;SDS011;12030;50.376;8.762;2022-10-28T12:45:14;13.43;;;2.90;;
23702;SDS011;12030;50.376;8.762;2022-10-28T12:50:39;11.47;;;3.00;;
23702;SDS011;12030;50.376;8.762;2022-10-28T12:53:23;9.17;;;3.03;;
23702;SDS011;12030;50.376;8.762;2022-10-28T12:55:59;9.07;;;2.83;;
23702;SDS011;12030;50.376;8.762;2022-10-28T12:58:32;10.87;;;3.20;;
23702;SDS011;12030;50.376;8.762;2022-10-28T13:01:06;8.63;;;2.90;;
23702;SDS011;12030;50.376;8.762;2022-10-28T13:03:35;9.20;;;2.70;;
23702;SDS011;12030;50.376;8.762;2022-10-28T13:20:27;7.07;;;2.20;;
23702;SDS011;12030;50.376;8.762;2022-10-28T13:28:33;11.90;;;2.70;;
23702;SDS011;12030;50.376;8.762;2022-10-28T13:31:05;11.57;;;3.00;;
23702;SDS011;12030;50.376;8.762;2022-10-28T13:33:32;8.00;;;2.57;;
23702;SDS011;12030;50.376;8.762;2022-10-28T13:36:15;19.03;;;5.80;;
23702;SDS011;12030;50.376;8.762;2022-10-28T13:38:47;8.93;;;2.87;;
23702;SDS011;12030;50.376;8.762;2022-10-28T13:41:26;16.20;;;3.50;;
23702;SDS011;12030;50.376;8.762;2022-10-28T13:52:30;9.53;;;3.87;;
23702;SDS011;12030;50.376;8.762;2022-10-28T13:54:57;9.30;;;2.97;;
23702;SDS011;12030;50.376;8.762;2022-10-28T13:57:44;10.57;;;3.10;;
23702;SDS011;12030;50.376;8.762;2022-10-28T14:08:06;6.63;;;2.80;;
23702;SDS011;12030;50.376;8.762;2022-10-28T14:13:31;14.20;;;3.50;;
23702;SDS011;12030;50.376;8.762;2022-10-28T14:18:53;8.23;;;2.73;;
23702;SDS011;12030;50.376;8.762;2022-10-28T14:21:24;10.73;;;3.30;;
23702;SDS011;12030;50.376;8.762;2022-10-28T14:24:06;7.67;;;2.43;;
23702;SDS011;12030;50.376;8.762;2022-10-28T14:29:30;6.80;;;2.50;;
23702;SDS011;12030;50.376;8.762;2022-10-28T14:37:59;10.13;;;3.00;;
23702;SDS011;12030;50.376;8.762;2022-10-28T14:41:35;12.37;;;2.90;;
23702;SDS011;12030;50.376;8.762;2022-10-28T14:43:42;12.63;;;3.20;;
23702;SDS011;12030;50.376;8.762;2022-10-28T14:49:21;12.13;;;3.07;;
23702;SDS011;12030;50.376;8.762;2022-10-28T14:51:50;9.40;;;3.47;;
23702;SDS011;12030;50.376;8.762;2022-10-28T14:54:32;11.90;;;3.70;;
23702;SDS011;12030;50.376;8.762;2022-10-28T14:57:01;8.37;;;3.13;;
23702;SDS011;12030;50.376;8.762;2022-10-28T14:59:30;13.23;;;3.30;;
23702;SDS011;12030;50.376;8.762;2022-10-28T15:02:09;12.73;;;3.50;;
23702;SDS011;12030;50.376;8.762;2022-10-28T15:04:36;7.20;;;3.43;;
23702;SDS011;12030;50.376;8.762;2022-10-28T15:07:03;11.90;;;3.50;;
23702;SDS011;12030;50.376;8.762;2022-10-28T15:09:29;8.50;;;3.17;;
23702;SDS011;12030;50.376;8.762;2022-10-28T15:12:00;9.40;;;3.67;;
23702;SDS011;12030;50.376;8.762;2022-10-28T15:17:09;12.70;;;3.47;;
23702;SDS011;12030;50.376;8.762;2022-10-28T15:19:39;10.80;;;3.50;;
23702;SDS011;12030;50.376;8.762;2022-10-28T15:22:12;8.93;;;3.27;;
23702;SDS011;12030;50.376;8.762;2022-10-28T15:24:40;11.90;;;4.97;;
23702;SDS011;12030;50.376;8.762;2022-10-28T15:27:08;15.03;;;4.20;;
23702;SDS011;12030;50.376;8.762;2022-10-28T15:29:36;10.87;;;3.30;;
23702;SDS011;12030;50.376;8.762;2022-10-28T15:34:38;10.70;;;4.00;;
23702;SDS011;12030;50.376;8.762;2022-10-28T15:37:04;8.60;;;3.77;;
23702;SDS011;12030;50.376;8.762;2022-10-28T15:39:31;12.60;;;3.80;;
23702;SDS011;12030;50.376;8.762;2022-10-28T15:41:57;7.83;;;3.40;;
23702;SDS011;12030;50.376;8.762;2022-10-28T15:44:30;22.43;;;4.40;;
23702;SDS011;12030;50.376;8.762;2022-10-28T15:46:56;9.83;;;3.83;;
23702;SDS011;12030;50.376;8.762;2022-10-28T15:49:30;8.63;;;3.73;;
23702;SDS011;12030;50.376;8.762;2022-10-28T15:54:40;10.77;;;3.87;;
23702;SDS011;12030;50.376;8.762;2022-10-28T15:57:22;10.90;;;3.67;;
23702;SDS011;12030;50.376;8.762;2022-10-28T16:02:53;14.10;;;4.13;;
23702;SDS011;12030;50.376;8.762;2022-10-28T16:07:55;9.40;;;3.40;;
23702;SDS011;12030;50.376;8.762;2022-10-28T16:10:22;13.33;;;3.57;;
23702;SDS011;12030;50.376;8.762;2022-10-28T16:12:48;13.10;;;4.90;;
23702;SDS011;12030;50.376;8.762;2022-10-28T16:15:13;10.67;;;3.67;;
23702;SDS011;12030;50.376;8.762;2022-10-28T16:17:40;14.03;;;3.90;;
23702;SDS011;12030;50.376;8.762;2022-10-28T16:20:14;9.37;;;3.17;;
23702;SDS011;12030;50.376;8.762;2022-10-28T16:22:44;12.10;;;3.80;;
23702;SDS011;12030;50.376;8.762;2022-10-28T16:25:11;9.47;;;3.63;;
23702;SDS011;12030;50.376;8.762;2022-10-28T16:27:38;8.37;;;3.40;;
23702;SDS011;12030;50.376;8.762;2022-10-28T16:30:03;16.17;;;5.27;;
23702;SDS011;12030;50.376;8.762;2022-10-28T16:32:35;9.53;;;3.87;;
23702;SDS011;12030;50.376;8.762;2022-10-28T16:35:02;10.73;;;4.10;;
23702;SDS011;12030;50.376;8.762;2022-10-28T16:37:36;9.30;;;3.63;;
23702;SDS011;12030;50.376;8.762;2022-10-28T16:40:02;12.60;;;4.60;;
23702;SDS011;12030;50.376;8.762;2022-10-28T16:42:30;9.17;;;3.90;;
23702;SDS011;12030;50.376;8.762;2022-10-28T16:44:55;11.47;;;3.87;;
23702;SDS011;12030;50.376;8.762;2022-10-28T16:47:21;19.80;;;3.90;;
23702;SDS011;12030;50.376;8.762;2022-10-28T16:49:51;12.90;;;5.00;;
23702;SDS011;12030;50.376;8.762;2022-10-28T16:52:18;17.53;;;4.40;;
23702;SDS011;12030;50.376;8.762;2022-10-28T16:54:46;14.77;;;4.53;;
23702;SDS011;12030;50.376;8.762;2022-10-28T16:57:12;10.07;;;3.90;;
23702;SDS011;12030;50.376;8.762;2022-10-28T16:59:40;20.77;;;5.40;;
23702;SDS011;12030;50.376;8.762;2022-10-28T17:02:11;16.03;;;4.87;;
23702;SDS011;12030;50.376;8.762;2022-10-28T17:04:43;10.07;;;4.83;;
23702;SDS011;12030;50.376;8.762;2022-10-28T17:07:09;15.30;;;5.03;;
23702;SDS011;12030;50.376;8.762;2022-10-28T17:09:39;12.30;;;5.30;;
23702;SDS011;12030;50.376;8.762;2022-10-28T17:12:05;12.90;;;6.10;;
23702;SDS011;12030;50.376;8.762;2022-10-28T17:14:30;13.20;;;5.60;;
23702;SDS011;12030;50.376;8.762;2022-10-28T17:16:56;12.53;;;5.00;;
23702;SDS011;12030;50.376;8.762;2022-10-28T17:19:22;13.03;;;4.53;;
23702;SDS011;12030;50.376;8.762;2022-10-28T17:21:48;11.73;;;4.77;;
23702;SDS011;12030;50.376;8.762;2022-10-28T17:24:14;10.67;;;5.63;;
23702;SDS011;12030;50.376;8.762;2022-10-28T17:26:39;21.60;;;5.20;;
23702;SDS011;12030;50.376;8.762;2022-10-28T17:29:08;10.73;;;4.47;;
23702;SDS011;12030;50.376;8.762;2022-10-28T17:31:33;13.30;;;5.30;;
23702;SDS011;12030;50.376;8.762;2022-10-28T17:33:59;13.47;;;6.07;;